createdAt,value
2018-10-11T00:01:54.846Z,14.07
2018-10-11T00:04:23.286Z,13.17
2018-10-11T00:06:51.788Z,14.37
2018-10-11T00:09:20.251Z,14.50
2018-10-11T00:11:48.782Z,13.13
2018-10-11T00:14:17.328Z,13.70
2018-10-11T00:16:45.772Z,14.23
2018-10-11T00:19:14.210Z,13.60
2018-10-11T00:21:42.646Z,13.80
2018-10-11T00:24:11.102Z,13.90
2018-10-11T00:26:39.884Z,13.33
2018-10-11T00:29:08.434Z,13.80
2018-10-11T00:31:37.048Z,13.77
2018-10-11T00:34:06.474Z,13.63
2018-10-11T00:36:34.966Z,13.70
2018-10-11T00:39:05.509Z,13.93
2018-10-11T00:41:33.943Z,13.80
2018-10-11T00:44:02.490Z,13.50
2018-10-11T00:46:31.280Z,13.77
2018-10-11T00:49:00.881Z,14.47
2018-10-11T00:51:29.555Z,12.70
2018-10-11T00:53:58.054Z,14.33
2018-10-11T00:56:26.657Z,14.13
2018-10-11T00:58:55.135Z,14.93
2018-10-11T01:01:23.658Z,15.30
2018-10-11T01:03:52.176Z,15.13
2018-10-11T01:06:21.120Z,14.43
2018-10-11T01:08:49.553Z,14.00
2018-10-11T01:11:18.068Z,14.90
2018-10-11T01:13:46.501Z,15.17
2018-10-11T01:16:14.969Z,15.63
2018-10-11T01:18:43.529Z,14.30
2018-10-11T01:21:12.088Z,14.50
2018-10-11T01:23:40.560Z,15.37
2018-10-11T01:26:09.176Z,16.77
2018-10-11T01:28:37.589Z,17.10
2018-10-11T01:31:11.430Z,16.60
2018-10-11T01:33:39.890Z,14.90
2018-10-11T01:36:08.360Z,15.47
2018-10-11T01:38:36.862Z,15.17
2018-10-11T01:41:05.348Z,15.17
2018-10-11T01:43:33.952Z,15.40
2018-10-11T01:46:02.416Z,16.17
2018-10-11T01:48:30.914Z,16.40
2018-10-11T01:50:59.339Z,16.87
2018-10-11T01:53:27.831Z,17.30
2018-10-11T01:55:56.315Z,18.27
2018-10-11T01:58:24.777Z,17.97
2018-10-11T02:00:53.316Z,19.03
2018-10-11T02:03:21.809Z,19.70
2018-10-11T02:05:50.255Z,18.60
2018-10-11T02:08:18.709Z,17.40
2018-10-11T02:10:47.275Z,17.43
2018-10-11T02:13:15.849Z,16.70
2018-10-11T02:15:44.294Z,17.43
2018-10-11T02:18:12.739Z,17.70
2018-10-11T02:20:41.210Z,18.80
2018-10-11T02:23:09.680Z,19.93
2018-10-11T02:25:38.694Z,20.30
2018-10-11T02:28:07.764Z,20.10
2018-10-11T02:30:36.222Z,20.90
2018-10-11T02:33:04.712Z,20.90
2018-10-11T02:35:33.149Z,21.60
2018-10-11T02:38:01.601Z,20.97
2018-10-11T02:40:30.103Z,19.67
2018-10-11T02:42:58.903Z,20.47
2018-10-11T02:45:27.421Z,20.40
2018-10-11T02:47:55.903Z,20.97
2018-10-11T02:50:24.405Z,19.67
2018-10-11T02:52:52.930Z,20.10
2018-10-11T02:55:24.524Z,19.83
2018-10-11T02:58:04.429Z,21.03
2018-10-11T03:00:34.049Z,20.37
2018-10-11T03:03:06.502Z,22.13
2018-10-11T03:05:38.789Z,21.90
2018-10-11T03:08:09.113Z,20.93
2018-10-11T03:10:44.357Z,22.43
2018-10-11T03:13:13.895Z,21.43
2018-10-11T03:15:43.160Z,21.43
2018-10-11T03:18:12.495Z,21.03
2018-10-11T03:20:42.706Z,22.27
2018-10-11T03:23:11.955Z,22.33
2018-10-11T03:25:41.329Z,23.20
2018-10-11T03:28:10.438Z,23.83
2018-10-11T03:30:39.847Z,23.63
2018-10-11T03:33:08.345Z,23.77
2018-10-11T03:35:36.754Z,23.13
2018-10-11T03:38:05.301Z,22.63
2018-10-11T03:40:33.770Z,23.40
2018-10-11T03:43:02.328Z,23.53
2018-10-11T03:45:30.899Z,24.90
2018-10-11T03:47:59.626Z,22.73
2018-10-11T03:50:28.255Z,24.67
2018-10-11T03:52:57.611Z,24.53
2018-10-11T03:55:26.211Z,24.87
2018-10-11T03:57:54.707Z,24.27
2018-10-11T04:00:23.815Z,26.27
2018-10-11T04:02:52.430Z,24.97
2018-10-11T04:05:21.521Z,24.03
2018-10-11T04:07:50.020Z,23.57
2018-10-11T04:10:18.458Z,24.07
2018-10-11T04:12:46.903Z,22.80
2018-10-11T04:15:15.448Z,23.80
2018-10-11T04:17:43.954Z,25.30
2018-10-11T04:20:12.919Z,25.23
2018-10-11T04:22:41.369Z,23.47
2018-10-11T04:25:09.881Z,24.07
2018-10-11T04:27:38.418Z,23.97
2018-10-11T04:30:06.991Z,24.20
2018-10-11T04:32:35.629Z,24.23
2018-10-11T04:35:04.117Z,24.57
2018-10-11T04:37:32.683Z,25.50
2018-10-11T04:40:01.264Z,26.20
2018-10-11T04:42:29.913Z,25.67
2018-10-11T04:44:58.489Z,26.47
2018-10-11T04:47:27.084Z,27.13
2018-10-11T04:49:55.563Z,26.57
2018-10-11T04:52:24.095Z,26.67
2018-10-11T04:54:52.644Z,28.23
2018-10-11T04:57:21.100Z,31.03
2018-10-11T04:59:49.588Z,30.67
2018-10-11T05:02:18.024Z,26.60
2018-10-11T05:04:46.602Z,27.30
2018-10-11T05:07:15.119Z,27.43
2018-10-11T05:09:43.665Z,27.47
2018-10-11T05:12:12.377Z,27.17
2018-10-11T05:14:41.002Z,27.50
2018-10-11T05:17:09.762Z,26.83
2018-10-11T05:19:39.599Z,26.80
2018-10-11T05:22:08.075Z,27.20
2018-10-11T05:24:36.623Z,26.10
2018-10-11T05:27:05.148Z,25.97
2018-10-11T05:29:33.710Z,25.90
2018-10-11T05:32:02.520Z,26.93
2018-10-11T05:34:31.060Z,27.10
2018-10-11T05:36:59.500Z,26.97
2018-10-11T05:39:28.059Z,26.37
2018-10-11T05:41:56.753Z,25.37
2018-10-11T05:44:25.315Z,25.50
2018-10-11T05:46:53.871Z,24.27
2018-10-11T05:49:22.485Z,23.37
2018-10-11T05:51:51.156Z,23.57
2018-10-11T05:54:19.847Z,23.93
2018-10-11T05:56:49.117Z,23.10
2018-10-11T05:59:17.581Z,22.10
2018-10-11T06:01:46.174Z,22.60
2018-10-11T06:04:14.888Z,23.07
2018-10-11T06:06:45.674Z,22.30
2018-10-11T06:09:14.402Z,20.30
2018-10-11T06:11:43.661Z,19.87
2018-10-11T06:14:12.821Z,20.10
2018-10-11T06:16:41.481Z,18.73
2018-10-11T06:19:10.130Z,19.43
2018-10-11T06:21:38.690Z,18.47
2018-10-11T06:24:07.255Z,19.03
2018-10-11T06:26:35.711Z,16.93
2018-10-11T06:29:04.308Z,17.37
2018-10-11T06:31:32.898Z,18.13
2018-10-11T06:34:01.502Z,16.97
2018-10-11T06:36:30.193Z,17.23
2018-10-11T06:38:59.492Z,17.33
2018-10-11T06:41:28.136Z,17.27
2018-10-11T06:43:57.109Z,15.80
2018-10-11T06:46:25.736Z,16.37
2018-10-11T06:48:54.290Z,15.77
2018-10-11T06:51:22.894Z,15.73
2018-10-11T06:53:51.764Z,16.27
2018-10-11T06:56:20.799Z,15.33
2018-10-11T06:58:49.303Z,14.93
2018-10-11T07:01:18.342Z,15.47
2018-10-11T07:03:46.838Z,15.03
2018-10-11T07:06:15.443Z,14.23
2018-10-11T07:08:44.128Z,15.13
2018-10-11T07:11:12.698Z,14.43
2018-10-11T07:13:41.306Z,14.57
2018-10-11T07:16:09.878Z,14.50
2018-10-11T07:18:38.352Z,13.77
2018-10-11T07:21:06.816Z,13.93
2018-10-11T07:23:35.499Z,13.07
2018-10-11T07:26:04.209Z,13.00
2018-10-11T07:28:33.045Z,12.30
2018-10-11T07:31:02.676Z,12.70
2018-10-11T07:33:31.271Z,12.90
2018-10-11T07:35:59.819Z,12.23
2018-10-11T07:38:28.681Z,11.30
2018-10-11T07:40:57.260Z,12.73
2018-10-11T07:43:25.688Z,12.67
2018-10-11T07:45:54.281Z,11.67
2018-10-11T07:48:22.776Z,12.27
2018-10-11T07:50:51.275Z,11.40
2018-10-11T07:53:19.746Z,11.30
2018-10-11T07:55:48.221Z,11.57
2018-10-11T07:58:16.692Z,10.40
2018-10-11T08:00:45.370Z,10.67
2018-10-11T08:03:13.872Z,10.77
2018-10-11T08:05:42.472Z,10.73
2018-10-11T08:08:11.018Z,10.60
2018-10-11T08:10:39.810Z,10.00
2018-10-11T08:13:08.329Z,10.77
2018-10-11T08:15:37.055Z,10.77
2018-10-11T08:18:06.132Z,10.00
2018-10-11T08:20:34.723Z,10.87
2018-10-11T08:23:03.249Z,9.93
2018-10-11T08:25:31.987Z,10.03
2018-10-11T08:28:00.259Z,10.23
2018-10-11T08:30:28.817Z,10.97
2018-10-11T08:32:57.316Z,10.00
2018-10-11T08:35:25.817Z,9.67
2018-10-11T08:37:55.517Z,9.07
2018-10-11T08:40:23.923Z,9.60
2018-10-11T08:42:52.459Z,8.93
2018-10-11T08:45:21.626Z,9.30
2018-10-11T08:47:50.194Z,9.50
2018-10-11T08:50:18.749Z,9.70
2018-10-11T08:52:47.168Z,9.03
2018-10-11T08:55:15.647Z,9.20
2018-10-11T08:57:44.275Z,9.37
2018-10-11T09:00:12.765Z,9.03
2018-10-11T09:02:41.203Z,9.07
2018-10-11T09:05:09.771Z,9.10
2018-10-11T09:07:38.169Z,8.67
2018-10-11T09:10:06.779Z,9.03
2018-10-11T09:12:35.307Z,8.60
2018-10-11T09:15:03.825Z,9.00
2018-10-11T09:17:32.589Z,8.83
2018-10-11T09:20:00.914Z,8.10
2018-10-11T09:22:29.424Z,9.00
2018-10-11T09:24:57.932Z,8.60
2018-10-11T09:27:26.421Z,8.67
2018-10-11T09:29:55.076Z,7.57
2018-10-11T09:32:23.522Z,7.73
2018-10-11T09:34:52.036Z,8.80
2018-10-11T09:37:20.510Z,7.93
2018-10-11T09:39:48.974Z,7.77
2018-10-11T09:42:17.575Z,7.80
2018-10-11T09:44:46.364Z,7.77
2018-10-11T09:47:14.870Z,7.37
2018-10-11T09:49:43.353Z,7.03
2018-10-11T09:52:11.914Z,7.70
2018-10-11T09:54:40.580Z,7.47
2018-10-11T09:57:27.530Z,7.90
2018-10-11T09:59:56.305Z,8.03
2018-10-11T10:02:25.683Z,7.33
2018-10-11T10:04:56.553Z,7.00
2018-10-11T10:07:25.013Z,7.30
2018-10-11T10:09:53.686Z,7.53
2018-10-11T10:12:22.500Z,7.53
2018-10-11T10:14:51.434Z,7.63
2018-10-11T10:17:20.405Z,7.30
2018-10-11T10:19:48.953Z,7.23
2018-10-11T10:22:17.396Z,6.93
2018-10-11T10:24:45.918Z,7.03
2018-10-11T10:27:14.528Z,7.20
2018-10-11T10:29:42.952Z,7.17
2018-10-11T10:32:11.427Z,6.13
2018-10-11T10:34:39.937Z,6.87
2018-10-11T10:37:08.518Z,6.67
2018-10-11T10:39:37.769Z,7.33
2018-10-11T10:42:06.341Z,6.80
2018-10-11T10:44:34.932Z,6.43
2018-10-11T10:47:03.538Z,6.40
2018-10-11T10:49:32.140Z,6.40
2018-10-11T10:52:00.635Z,6.73
2018-10-11T10:54:30.142Z,6.77
2018-10-11T10:56:59.464Z,6.57
2018-10-11T10:59:28.120Z,6.40
2018-10-11T11:01:56.580Z,6.77
2018-10-11T11:04:25.329Z,6.67
2018-10-11T11:06:54.050Z,6.60
2018-10-11T11:09:22.581Z,6.10
2018-10-11T11:11:51.166Z,6.47
2018-10-11T11:14:19.713Z,5.70
2018-10-11T11:16:48.234Z,6.33
2018-10-11T11:19:17.346Z,5.90
2018-10-11T11:21:45.813Z,6.13
2018-10-11T11:24:14.622Z,6.87
2018-10-11T11:26:43.057Z,6.27
2018-10-11T11:29:11.532Z,6.40
2018-10-11T11:31:39.957Z,6.00
2018-10-11T11:34:08.500Z,5.93
2018-10-11T11:36:36.978Z,5.93
2018-10-11T11:39:08.010Z,5.87
2018-10-11T11:41:36.655Z,5.73
2018-10-11T11:44:05.313Z,5.50
2018-10-11T11:46:33.950Z,5.40
2018-10-11T11:49:02.495Z,5.37
2018-10-11T11:51:31.142Z,5.40
2018-10-11T11:53:59.715Z,5.10
2018-10-11T11:56:28.363Z,5.90
2018-10-11T11:58:57.065Z,5.37
2018-10-11T12:01:26.075Z,5.53
2018-10-11T12:03:54.877Z,5.17
2018-10-11T12:06:23.442Z,5.37
2018-10-11T12:08:53.582Z,5.20
2018-10-11T12:11:22.062Z,5.80
2018-10-11T12:13:50.617Z,5.57
2018-10-11T12:16:20.208Z,5.70
2018-10-11T12:18:49.104Z,5.87
2018-10-11T12:21:17.878Z,5.83
2018-10-11T12:23:46.476Z,5.33
2018-10-11T12:26:14.985Z,5.50
2018-10-11T12:28:43.786Z,6.20
2018-10-11T12:31:12.081Z,5.47
2018-10-11T12:33:40.671Z,5.97
2018-10-11T12:36:09.383Z,6.17
2018-10-11T12:38:37.991Z,6.10
2018-10-11T12:41:06.534Z,5.47
2018-10-11T12:43:35.227Z,6.00
2018-10-11T12:46:03.762Z,5.87
2018-10-11T12:48:32.333Z,5.97
2018-10-11T12:51:00.907Z,5.87
2018-10-11T12:53:29.398Z,5.83
2018-10-11T12:55:57.938Z,5.53
2018-10-11T12:58:26.380Z,5.33
2018-10-11T13:00:54.896Z,5.60
2018-10-11T13:03:23.650Z,5.53
2018-10-11T13:05:52.349Z,5.60
2018-10-11T13:08:20.964Z,6.07
2018-10-11T13:10:49.481Z,6.10
2018-10-11T13:13:18.676Z,6.43
2018-10-11T13:15:47.271Z,6.03
2018-10-11T13:18:15.782Z,5.90
2018-10-11T13:20:44.316Z,6.03
2018-10-11T13:23:16.915Z,6.20
2018-10-11T13:25:41.658Z,5.67
2018-10-11T13:28:10.250Z,6.50
2018-10-11T13:30:38.835Z,5.90
2018-10-11T13:33:07.401Z,6.20
2018-10-11T13:35:35.851Z,6.20
2018-10-11T13:38:04.329Z,6.53
2018-10-11T13:40:32.891Z,5.53
2018-10-11T13:43:01.357Z,6.10
2018-10-11T13:45:29.837Z,6.43
2018-10-11T13:47:58.474Z,5.97
2018-10-11T13:50:26.911Z,5.90
2018-10-11T13:52:55.427Z,6.43
2018-10-11T13:55:23.886Z,6.17
2018-10-11T13:57:52.383Z,6.33
2018-10-11T14:00:20.981Z,5.97
2018-10-11T14:02:49.469Z,6.53
2018-10-11T14:05:18.368Z,6.17
2018-10-11T14:07:47.007Z,6.60
2018-10-11T14:10:15.503Z,6.57
2018-10-11T14:12:43.964Z,6.87
2018-10-11T14:15:12.469Z,6.47
2018-10-11T14:17:41.000Z,6.30
2018-10-11T14:20:09.563Z,7.10
2018-10-11T14:22:38.141Z,6.63
2018-10-11T14:25:07.426Z,6.00
2018-10-11T14:27:35.927Z,7.50
2018-10-11T14:30:04.558Z,7.67
2018-10-11T14:32:33.042Z,7.63
2018-10-11T14:35:01.517Z,7.60
2018-10-11T14:37:30.017Z,7.23
2018-10-11T14:39:58.498Z,7.37
2018-10-11T14:42:27.051Z,7.53
2018-10-11T14:44:55.564Z,7.77
2018-10-11T14:47:24.099Z,7.60
2018-10-11T14:49:52.685Z,7.50
2018-10-11T14:52:21.377Z,7.23
2018-10-11T14:54:49.937Z,7.40
2018-10-11T14:57:18.646Z,7.70
2018-10-11T14:59:47.061Z,8.20
2018-10-11T15:02:15.737Z,8.23
2018-10-11T15:04:44.414Z,7.87
2018-10-11T15:07:12.883Z,8.27
2018-10-11T15:09:43.092Z,7.87
2018-10-11T15:12:11.909Z,8.33
2018-10-11T15:14:40.485Z,8.10
2018-10-11T15:17:09.156Z,7.60
2018-10-11T15:19:37.751Z,7.80
2018-10-11T15:22:06.759Z,8.00
2018-10-11T15:24:35.394Z,7.77
2018-10-11T15:27:04.091Z,8.43
2018-10-11T15:29:32.637Z,8.37
2018-10-11T15:32:01.217Z,8.13
2018-10-11T15:34:29.860Z,8.17
2018-10-11T15:36:58.536Z,7.70
2018-10-11T15:39:27.383Z,8.30
2018-10-11T15:41:55.948Z,8.43
2018-10-11T15:44:24.587Z,8.37
2018-10-11T15:46:53.194Z,8.97
2018-10-11T15:49:21.829Z,8.00
2018-10-11T15:51:50.467Z,8.63
2018-10-11T15:54:18.957Z,8.60
2018-10-11T15:56:47.631Z,8.10
2018-10-11T15:59:16.697Z,8.47
2018-10-11T16:01:45.271Z,8.57
2018-10-11T16:04:13.847Z,8.33
2018-10-11T16:06:42.498Z,8.43
2018-10-11T16:09:11.515Z,9.30
2018-10-11T16:11:40.213Z,7.97
2018-10-11T16:14:08.791Z,8.53
2018-10-11T16:16:37.353Z,9.20
2018-10-11T16:19:06.254Z,9.63
2018-10-11T16:21:35.007Z,9.57
2018-10-11T16:24:03.649Z,8.90
2018-10-11T16:26:32.270Z,10.80
2018-10-11T16:29:00.910Z,19.33
2018-10-11T16:31:29.621Z,84.63
2018-10-11T16:33:59.157Z,9.07
2018-10-11T16:36:27.723Z,8.67
2018-10-11T16:38:56.256Z,9.63
2018-10-11T16:41:25.062Z,10.23
2018-10-11T16:43:57.935Z,10.87
2018-10-11T16:46:27.291Z,10.80
2018-10-11T16:49:02.930Z,10.70
2018-10-11T16:51:35.285Z,10.60
2018-10-11T16:54:11.166Z,10.00
2018-10-11T16:56:42.383Z,10.77
2018-10-11T17:02:01.455Z,11.03
2018-10-11T17:04:30.497Z,11.00
2018-10-11T17:07:00.789Z,12.27
2018-10-11T17:09:30.279Z,10.80
2018-10-11T17:12:01.041Z,11.47
2018-10-11T17:14:29.940Z,10.77
2018-10-11T17:16:59.210Z,10.47
2018-10-11T17:19:29.041Z,11.17
2018-10-11T17:21:58.104Z,11.13
2018-10-11T17:24:29.731Z,10.30
2018-10-11T17:26:58.575Z,11.53
2018-10-11T17:29:27.730Z,11.63
2018-10-11T17:31:56.437Z,11.13
2018-10-11T17:34:25.270Z,11.70
2018-10-11T17:36:53.863Z,11.40
2018-10-11T17:39:22.748Z,11.07
2018-10-11T17:41:51.427Z,12.60
2018-10-11T17:44:20.323Z,13.23
2018-10-11T17:46:49.095Z,11.57
2018-10-11T17:49:18.497Z,12.30
2018-10-11T17:51:47.593Z,12.43
2018-10-11T17:54:16.535Z,15.10
2018-10-11T17:56:45.345Z,13.43
2018-10-11T17:59:14.212Z,12.70
2018-10-11T18:01:42.885Z,13.77
2018-10-11T18:04:11.987Z,23.60
2018-10-11T18:06:40.967Z,14.03
2018-10-11T18:09:12.931Z,13.37
2018-10-11T18:11:43.370Z,13.30
2018-10-11T18:14:13.351Z,13.80
2018-10-11T18:16:42.785Z,13.23
2018-10-11T18:19:12.392Z,28.40
2018-10-11T18:21:41.890Z,13.53
2018-10-11T18:24:12.043Z,15.37
2018-10-11T18:26:42.239Z,16.70
2018-10-11T18:29:11.152Z,15.73
2018-10-11T18:31:40.846Z,15.50
2018-10-11T18:34:10.527Z,13.93
2018-10-11T18:36:39.571Z,17.83
2018-10-11T18:39:13.382Z,14.83
2018-10-11T18:41:44.791Z,15.53
2018-10-11T18:44:13.899Z,16.23
2018-10-11T18:46:42.760Z,15.57
2018-10-11T18:49:12.424Z,14.13
2018-10-11T18:51:41.330Z,15.33
2018-10-11T18:54:10.260Z,16.00
2018-10-11T18:56:38.995Z,15.30
2018-10-11T18:59:08.741Z,15.67
2018-10-11T19:01:38.225Z,15.77
2018-10-11T19:04:07.522Z,17.10
2018-10-11T19:06:36.468Z,17.10
2018-10-11T19:09:06.860Z,16.33
2018-10-11T19:11:35.680Z,16.20
2018-10-11T19:14:04.490Z,15.67
2018-10-11T19:16:33.952Z,14.97
2018-10-11T19:19:03.575Z,16.20
2018-10-11T19:21:32.755Z,15.30
2018-10-11T19:24:02.608Z,16.03
2018-10-11T19:26:31.399Z,15.33
2018-10-11T19:29:00.937Z,16.50
2018-10-11T19:31:29.854Z,17.87
2018-10-11T19:33:59.877Z,16.33
2018-10-11T19:36:29.470Z,15.37
2018-10-11T19:38:58.493Z,20.33
2018-10-11T19:41:27.935Z,17.10
2018-10-11T19:43:57.239Z,16.67
2018-10-11T19:46:26.074Z,17.43
2018-10-11T19:48:55.659Z,16.80
2018-10-11T19:51:32.921Z,15.57
2018-10-11T19:54:02.197Z,16.60
2018-10-11T19:56:33.417Z,16.13
2018-10-11T19:59:02.683Z,16.80
2018-10-11T20:01:31.738Z,16.17
2018-10-11T20:04:00.449Z,17.63
2018-10-11T20:06:29.146Z,17.30
2018-10-11T20:08:58.751Z,17.77
2018-10-11T20:11:27.808Z,17.63
2018-10-11T20:13:56.458Z,17.73
2018-10-11T20:16:25.113Z,17.33
2018-10-11T20:18:54.027Z,17.13
2018-10-11T20:21:22.965Z,17.57
2018-10-11T20:23:51.760Z,17.63
2018-10-11T20:26:20.603Z,17.40
2018-10-11T20:28:49.426Z,18.17
2018-10-11T20:31:18.432Z,18.20
2018-10-11T20:33:47.125Z,18.13
2018-10-11T20:36:15.798Z,18.20
2018-10-11T20:38:44.735Z,18.60
2018-10-11T20:41:13.628Z,19.13
2018-10-11T20:43:42.347Z,19.03
2018-10-11T20:46:11.242Z,18.73
2018-10-11T20:48:39.911Z,19.97
2018-10-11T20:51:08.865Z,18.73
2018-10-11T20:53:37.624Z,19.30
2018-10-11T20:56:06.930Z,19.13
2018-10-11T20:58:36.085Z,20.07
2018-10-11T21:01:04.982Z,18.73
2018-10-11T21:03:33.559Z,18.43
2018-10-11T21:06:02.187Z,18.90
2018-10-11T21:08:30.639Z,19.57
2018-10-11T21:10:59.308Z,19.33
2018-10-11T21:13:27.875Z,18.70
2018-10-11T21:15:56.449Z,19.13
2018-10-11T21:18:25.076Z,18.93
2018-10-11T21:20:53.644Z,19.57
2018-10-11T21:23:22.357Z,20.67
2018-10-11T21:25:51.012Z,19.60
2018-10-11T21:28:19.722Z,19.37
2018-10-11T21:30:48.196Z,18.60
2018-10-11T21:33:16.611Z,17.73
2018-10-11T21:35:45.213Z,16.43
2018-10-11T21:38:13.865Z,17.93
2018-10-11T21:40:42.370Z,17.73
2018-10-11T21:43:11.005Z,17.07
2018-10-11T21:45:39.517Z,16.80
2018-10-11T21:48:08.088Z,17.10
2018-10-11T21:50:36.689Z,15.90
2018-10-11T21:53:05.186Z,16.70
2018-10-11T21:55:33.809Z,17.30
2018-10-11T21:58:02.501Z,16.33
2018-10-11T22:00:36.352Z,16.00
2018-10-11T22:03:05.292Z,16.20
2018-10-11T22:05:35.030Z,18.00
2018-10-11T22:08:03.707Z,17.87
2018-10-11T22:10:32.311Z,17.20
2018-10-11T22:13:00.813Z,17.80
2018-10-11T22:15:29.340Z,17.57
2018-10-11T22:17:57.793Z,18.27
2018-10-11T22:20:26.437Z,17.60
2018-10-11T22:22:54.925Z,18.13
2018-10-11T22:25:24.137Z,18.27
2018-10-11T22:27:53.228Z,17.27
2018-10-11T22:30:21.697Z,18.73
2018-10-11T22:32:50.225Z,18.83
2018-10-11T22:35:18.756Z,19.03
2018-10-11T22:37:47.232Z,18.77
2018-10-11T22:40:15.750Z,18.13
2018-10-11T22:42:44.468Z,18.17
2018-10-11T22:45:13.039Z,18.87
2018-10-11T22:47:41.547Z,18.53
2018-10-11T22:50:10.089Z,18.70
2018-10-11T22:52:38.675Z,18.03
2018-10-11T22:55:07.483Z,17.80
2018-10-11T22:57:36.018Z,18.23
2018-10-11T23:00:04.592Z,17.93
2018-10-11T23:02:33.055Z,17.83
2018-10-11T23:05:02.624Z,17.67
2018-10-11T23:07:31.603Z,17.50
2018-10-11T23:10:00.097Z,17.97
2018-10-11T23:12:29.959Z,17.10
2018-10-11T23:14:58.582Z,17.93
2018-10-11T23:17:27.002Z,17.93
2018-10-11T23:19:55.725Z,19.30
2018-10-11T23:22:24.414Z,19.53
2018-10-11T23:24:52.868Z,19.10
2018-10-11T23:27:21.446Z,19.03
2018-10-11T23:29:49.886Z,18.27
2018-10-11T23:32:18.507Z,18.10
2018-10-11T23:34:47.038Z,18.80
2018-10-11T23:37:15.571Z,19.03
2018-10-11T23:39:44.207Z,19.43
2018-10-11T23:42:12.760Z,18.70
2018-10-11T23:44:41.324Z,18.73
2018-10-11T23:47:09.820Z,19.20
2018-10-11T23:49:38.801Z,18.93
2018-10-11T23:52:07.339Z,18.53
2018-10-11T23:54:36.122Z,19.00
2018-10-11T23:57:04.654Z,18.97
2018-10-11T23:59:33.096Z,19.57
